sensor_id;sensor_type;location;lat;lon;timestamp;P1;durP1;ratioP1;P2;durP2;ratioP2
1467;SDS011;727;48.892;9.544;2023-12-28T00:01:44;4.82;;;4.28;;
1467;SDS011;727;48.892;9.544;2023-12-28T00:04:11;15.10;;;5.85;;
1467;SDS011;727;48.892;9.544;2023-12-28T00:06:37;5.28;;;4.72;;
1467;SDS011;727;48.892;9.544;2023-12-28T00:09:04;4.85;;;4.13;;
1467;SDS011;727;48.892;9.544;2023-12-28T00:11:31;4.88;;;3.85;;
1467;SDS011;727;48.892;9.544;2023-12-28T00:13:57;6.72;;;4.05;;
1467;SDS011;727;48.892;9.544;2023-12-28T00:16:24;4.60;;;3.60;;
1467;SDS011;727;48.892;9.544;2023-12-28T00:18:52;4.82;;;3.30;;
1467;SDS011;727;48.892;9.544;2023-12-28T00:21:19;6.00;;;4.43;;
1467;SDS011;727;48.892;9.544;2023-12-28T00:23:45;4.15;;;3.80;;
1467;SDS011;727;48.892;9.544;2023-12-28T00:26:12;6.00;;;3.38;;
1467;SDS011;727;48.892;9.544;2023-12-28T00:28:39;4.00;;;3.60;;
1467;SDS011;727;48.892;9.544;2023-12-28T00:31:05;7.30;;;4.25;;
1467;SDS011;727;48.892;9.544;2023-12-28T00:33:32;3.45;;;2.95;;
1467;SDS011;727;48.892;9.544;2023-12-28T00:36:00;3.90;;;3.45;;
1467;SDS011;727;48.892;9.544;2023-12-28T00:38:27;3.75;;;3.45;;
1467;SDS011;727;48.892;9.544;2023-12-28T00:40:54;7.18;;;3.90;;
1467;SDS011;727;48.892;9.544;2023-12-28T00:43:20;3.38;;;3.05;;
1467;SDS011;727;48.892;9.544;2023-12-28T00:45:47;4.05;;;3.65;;
1467;SDS011;727;48.892;9.544;2023-12-28T00:48:14;3.53;;;3.15;;
1467;SDS011;727;48.892;9.544;2023-12-28T00:50:41;6.85;;;2.85;;
1467;SDS011;727;48.892;9.544;2023-12-28T00:53:09;5.10;;;4.55;;
1467;SDS011;727;48.892;9.544;2023-12-28T00:55:36;4.32;;;3.92;;
1467;SDS011;727;48.892;9.544;2023-12-28T00:58:02;2.88;;;2.67;;
1467;SDS011;727;48.892;9.544;2023-12-28T01:00:29;3.33;;;3.10;;
1467;SDS011;727;48.892;9.544;2023-12-28T01:02:56;8.80;;;5.43;;
1467;SDS011;727;48.892;9.544;2023-12-28T01:05:23;4.47;;;3.50;;
1467;SDS011;727;48.892;9.544;2023-12-28T01:07:51;3.40;;;3.10;;
1467;SDS011;727;48.892;9.544;2023-12-28T01:10:19;5.22;;;3.05;;
1467;SDS011;727;48.892;9.544;2023-12-28T01:12:45;4.05;;;3.75;;
1467;SDS011;727;48.892;9.544;2023-12-28T01:15:12;4.38;;;3.50;;
1467;SDS011;727;48.892;9.544;2023-12-28T01:17:39;4.28;;;3.60;;
1467;SDS011;727;48.892;9.544;2023-12-28T01:20:06;4.47;;;4.15;;
1467;SDS011;727;48.892;9.544;2023-12-28T01:22:33;5.85;;;3.10;;
1467;SDS011;727;48.892;9.544;2023-12-28T01:25:00;3.65;;;3.00;;
1467;SDS011;727;48.892;9.544;2023-12-28T01:27:28;3.42;;;3.13;;
1467;SDS011;727;48.892;9.544;2023-12-28T01:29:54;4.07;;;3.67;;
1467;SDS011;727;48.892;9.544;2023-12-28T01:32:21;3.72;;;3.03;;
1467;SDS011;727;48.892;9.544;2023-12-28T01:34:48;4.97;;;2.85;;
1467;SDS011;727;48.892;9.544;2023-12-28T01:37:14;4.07;;;3.38;;
1467;SDS011;727;48.892;9.544;2023-12-28T01:39:41;2.80;;;2.60;;
1467;SDS011;727;48.892;9.544;2023-12-28T01:42:08;3.65;;;3.05;;
1467;SDS011;727;48.892;9.544;2023-12-28T01:44:36;4.43;;;2.88;;
1467;SDS011;727;48.892;9.544;2023-12-28T01:47:03;3.45;;;3.00;;
1467;SDS011;727;48.892;9.544;2023-12-28T01:49:30;2.88;;;2.63;;
1467;SDS011;727;48.892;9.544;2023-12-28T01:51:57;3.60;;;3.05;;
1467;SDS011;727;48.892;9.544;2023-12-28T01:54:25;7.35;;;3.13;;
1467;SDS011;727;48.892;9.544;2023-12-28T01:56:52;3.20;;;3.00;;
1467;SDS011;727;48.892;9.544;2023-12-28T01:59:19;5.00;;;3.88;;
1467;SDS011;727;48.892;9.544;2023-12-28T02:01:47;4.43;;;3.10;;
1467;SDS011;727;48.892;9.544;2023-12-28T02:04:14;3.55;;;2.92;;
1467;SDS011;727;48.892;9.544;2023-12-28T02:06:41;3.30;;;2.60;;
1467;SDS011;727;48.892;9.544;2023-12-28T02:09:08;3.30;;;3.10;;
1467;SDS011;727;48.892;9.544;2023-12-28T02:11:35;3.97;;;3.15;;
1467;SDS011;727;48.892;9.544;2023-12-28T02:14:02;5.20;;;4.70;;
1467;SDS011;727;48.892;9.544;2023-12-28T02:16:30;3.75;;;3.28;;
1467;SDS011;727;48.892;9.544;2023-12-28T02:19:03;5.00;;;3.33;;
1467;SDS011;727;48.892;9.544;2023-12-28T02:21:51;3.50;;;3.28;;
1467;SDS011;727;48.892;9.544;2023-12-28T02:24:20;2.30;;;2.08;;
1467;SDS011;727;48.892;9.544;2023-12-28T02:26:48;3.58;;;3.20;;
1467;SDS011;727;48.892;9.544;2023-12-28T02:29:15;2.55;;;2.35;;
1467;SDS011;727;48.892;9.544;2023-12-28T02:31:44;2.33;;;2.13;;
1467;SDS011;727;48.892;9.544;2023-12-28T02:34:16;5.18;;;3.25;;
1467;SDS011;727;48.892;9.544;2023-12-28T02:36:55;5.10;;;2.60;;
1467;SDS011;727;48.892;9.544;2023-12-28T02:39:22;2.50;;;2.30;;
1467;SDS011;727;48.892;9.544;2023-12-28T02:41:52;3.72;;;2.40;;
1467;SDS011;727;48.892;9.544;2023-12-28T02:44:20;4.35;;;3.03;;
1467;SDS011;727;48.892;9.544;2023-12-28T02:46:47;3.22;;;2.90;;
1467;SDS011;727;48.892;9.544;2023-12-28T02:49:14;3.35;;;2.92;;
1467;SDS011;727;48.892;9.544;2023-12-28T02:51:41;3.10;;;2.75;;
1467;SDS011;727;48.892;9.544;2023-12-28T02:54:08;2.88;;;2.67;;
1467;SDS011;727;48.892;9.544;2023-12-28T02:56:34;3.25;;;2.80;;
1467;SDS011;727;48.892;9.544;2023-12-28T02:59:02;2.28;;;2.10;;
1467;SDS011;727;48.892;9.544;2023-12-28T03:01:29;2.67;;;2.35;;
1467;SDS011;727;48.892;9.544;2023-12-28T03:03:56;3.03;;;2.20;;
1467;SDS011;727;48.892;9.544;2023-12-28T03:06:23;4.20;;;2.88;;
1467;SDS011;727;48.892;9.544;2023-12-28T03:08:49;4.63;;;3.00;;
1467;SDS011;727;48.892;9.544;2023-12-28T03:11:16;3.72;;;2.85;;
1467;SDS011;727;48.892;9.544;2023-12-28T03:13:45;4.45;;;3.40;;
1467;SDS011;727;48.892;9.544;2023-12-28T03:16:14;3.63;;;3.28;;
1467;SDS011;727;48.892;9.544;2023-12-28T03:18:40;2.78;;;2.58;;
1467;SDS011;727;48.892;9.544;2023-12-28T03:21:07;3.40;;;2.40;;
1467;SDS011;727;48.892;9.544;2023-12-28T03:23:34;4.60;;;2.85;;
1467;SDS011;727;48.892;9.544;2023-12-28T03:26:00;2.90;;;2.70;;
1467;SDS011;727;48.892;9.544;2023-12-28T03:28:27;6.68;;;3.92;;
1467;SDS011;727;48.892;9.544;2023-12-28T03:30:54;4.78;;;3.30;;
1467;SDS011;727;48.892;9.544;2023-12-28T03:33:22;3.55;;;3.25;;
1467;SDS011;727;48.892;9.544;2023-12-28T03:35:48;5.75;;;3.45;;
1467;SDS011;727;48.892;9.544;2023-12-28T03:38:16;3.85;;;3.08;;
1467;SDS011;727;48.892;9.544;2023-12-28T03:40:43;5.55;;;3.50;;
1467;SDS011;727;48.892;9.544;2023-12-28T03:43:12;6.45;;;3.72;;
1467;SDS011;727;48.892;9.544;2023-12-28T03:45:39;6.07;;;3.92;;
1467;SDS011;727;48.892;9.544;2023-12-28T03:48:06;8.18;;;3.53;;
1467;SDS011;727;48.892;9.544;2023-12-28T03:50:35;3.00;;;2.65;;
1467;SDS011;727;48.892;9.544;2023-12-28T03:53:02;3.05;;;2.72;;
1467;SDS011;727;48.892;9.544;2023-12-28T03:55:29;6.35;;;3.10;;
1467;SDS011;727;48.892;9.544;2023-12-28T03:57:55;4.35;;;3.30;;
1467;SDS011;727;48.892;9.544;2023-12-28T04:00:23;3.17;;;2.25;;
1467;SDS011;727;48.892;9.544;2023-12-28T04:02:50;4.90;;;3.05;;
1467;SDS011;727;48.892;9.544;2023-12-28T04:05:16;3.13;;;2.85;;
1467;SDS011;727;48.892;9.544;2023-12-28T04:07:44;3.78;;;3.25;;
1467;SDS011;727;48.892;9.544;2023-12-28T04:10:11;6.82;;;4.20;;
1467;SDS011;727;48.892;9.544;2023-12-28T04:12:38;4.15;;;3.72;;
1467;SDS011;727;48.892;9.544;2023-12-28T04:15:05;4.65;;;4.15;;
1467;SDS011;727;48.892;9.544;2023-12-28T04:17:32;5.97;;;4.40;;
1467;SDS011;727;48.892;9.544;2023-12-28T04:19:59;6.85;;;4.00;;
1467;SDS011;727;48.892;9.544;2023-12-28T04:22:25;6.25;;;4.05;;
1467;SDS011;727;48.892;9.544;2023-12-28T04:24:54;4.30;;;3.70;;
1467;SDS011;727;48.892;9.544;2023-12-28T04:27:20;5.45;;;4.95;;
1467;SDS011;727;48.892;9.544;2023-12-28T04:29:47;6.75;;;4.65;;
1467;SDS011;727;48.892;9.544;2023-12-28T04:32:14;6.40;;;4.85;;
1467;SDS011;727;48.892;9.544;2023-12-28T04:34:40;5.93;;;4.15;;
1467;SDS011;727;48.892;9.544;2023-12-28T04:37:07;5.80;;;3.65;;
1467;SDS011;727;48.892;9.544;2023-12-28T04:39:34;6.13;;;4.75;;
1467;SDS011;727;48.892;9.544;2023-12-28T04:42:04;4.72;;;3.92;;
1467;SDS011;727;48.892;9.544;2023-12-28T04:44:30;5.05;;;4.55;;
1467;SDS011;727;48.892;9.544;2023-12-28T04:46:57;7.63;;;4.55;;
1467;SDS011;727;48.892;9.544;2023-12-28T04:49:24;5.43;;;4.93;;
1467;SDS011;727;48.892;9.544;2023-12-28T04:51:50;6.43;;;5.20;;
1467;SDS011;727;48.892;9.544;2023-12-28T04:54:17;5.72;;;4.65;;
1467;SDS011;727;48.892;9.544;2023-12-28T04:56:44;6.10;;;5.10;;
1467;SDS011;727;48.892;9.544;2023-12-28T04:59:12;10.07;;;5.88;;
1467;SDS011;727;48.892;9.544;2023-12-28T05:01:42;5.50;;;5.00;;
1467;SDS011;727;48.892;9.544;2023-12-28T05:04:08;5.70;;;4.95;;
1467;SDS011;727;48.892;9.544;2023-12-28T05:06:35;8.63;;;6.55;;
1467;SDS011;727;48.892;9.544;2023-12-28T05:09:02;14.10;;;9.20;;
1467;SDS011;727;48.892;9.544;2023-12-28T05:11:29;11.60;;;8.85;;
1467;SDS011;727;48.892;9.544;2023-12-28T05:13:56;14.25;;;10.48;;
1467;SDS011;727;48.892;9.544;2023-12-28T05:16:24;6.95;;;3.85;;
1467;SDS011;727;48.892;9.544;2023-12-28T05:18:51;3.05;;;2.55;;
1467;SDS011;727;48.892;9.544;2023-12-28T05:21:17;3.53;;;2.70;;
1467;SDS011;727;48.892;9.544;2023-12-28T05:23:46;4.22;;;3.20;;
1467;SDS011;727;48.892;9.544;2023-12-28T05:26:12;4.85;;;4.10;;
1467;SDS011;727;48.892;9.544;2023-12-28T05:28:39;4.47;;;3.67;;
1467;SDS011;727;48.892;9.544;2023-12-28T05:31:06;5.97;;;3.72;;
1467;SDS011;727;48.892;9.544;2023-12-28T05:33:34;4.35;;;3.95;;
1467;SDS011;727;48.892;9.544;2023-12-28T05:36:02;3.33;;;3.03;;
1467;SDS011;727;48.892;9.544;2023-12-28T05:38:28;4.18;;;3.78;;
1467;SDS011;727;48.892;9.544;2023-12-28T05:40:55;5.55;;;3.47;;
1467;SDS011;727;48.892;9.544;2023-12-28T05:43:22;4.32;;;3.30;;
1467;SDS011;727;48.892;9.544;2023-12-28T05:45:48;5.70;;;4.30;;
1467;SDS011;727;48.892;9.544;2023-12-28T05:48:15;4.68;;;4.25;;
1467;SDS011;727;48.892;9.544;2023-12-28T05:50:43;4.10;;;3.78;;
1467;SDS011;727;48.892;9.544;2023-12-28T05:53:10;6.50;;;4.45;;
1467;SDS011;727;48.892;9.544;2023-12-28T05:55:39;7.25;;;5.38;;
1467;SDS011;727;48.892;9.544;2023-12-28T05:58:05;11.00;;;6.90;;
1467;SDS011;727;48.892;9.544;2023-12-28T06:00:32;8.57;;;5.03;;
1467;SDS011;727;48.892;9.544;2023-12-28T06:03:00;5.32;;;4.80;;
1467;SDS011;727;48.892;9.544;2023-12-28T06:05:27;4.47;;;3.22;;
1467;SDS011;727;48.892;9.544;2023-12-28T06:07:55;5.63;;;3.63;;
1467;SDS011;727;48.892;9.544;2023-12-28T06:10:22;4.18;;;3.78;;
1467;SDS011;727;48.892;9.544;2023-12-28T06:12:49;4.18;;;3.78;;
1467;SDS011;727;48.892;9.544;2023-12-28T06:15:16;3.42;;;3.13;;
1467;SDS011;727;48.892;9.544;2023-12-28T06:17:42;4.53;;;4.07;;
1467;SDS011;727;48.892;9.544;2023-12-28T06:20:09;8.18;;;4.03;;
1467;SDS011;727;48.892;9.544;2023-12-28T06:22:37;4.15;;;3.65;;
1467;SDS011;727;48.892;9.544;2023-12-28T06:25:05;4.28;;;3.88;;
1467;SDS011;727;48.892;9.544;2023-12-28T06:27:33;7.18;;;4.30;;
1467;SDS011;727;48.892;9.544;2023-12-28T06:29:59;8.77;;;4.75;;
1467;SDS011;727;48.892;9.544;2023-12-28T06:32:26;4.38;;;3.88;;
1467;SDS011;727;48.892;9.544;2023-12-28T06:34:53;7.50;;;3.90;;
1467;SDS011;727;48.892;9.544;2023-12-28T06:37:20;4.70;;;4.00;;
1467;SDS011;727;48.892;9.544;2023-12-28T06:39:46;5.85;;;5.25;;
1467;SDS011;727;48.892;9.544;2023-12-28T06:42:15;6.90;;;4.40;;
1467;SDS011;727;48.892;9.544;2023-12-28T06:44:42;4.95;;;4.07;;
1467;SDS011;727;48.892;9.544;2023-12-28T06:47:09;4.82;;;4.32;;
1467;SDS011;727;48.892;9.544;2023-12-28T06:49:35;6.78;;;4.93;;
1467;SDS011;727;48.892;9.544;2023-12-28T06:52:02;6.40;;;5.00;;
1467;SDS011;727;48.892;9.544;2023-12-28T06:54:29;3.22;;;2.92;;
1467;SDS011;727;48.892;9.544;2023-12-28T06:56:56;7.20;;;3.80;;
1467;SDS011;727;48.892;9.544;2023-12-28T06:59:24;3.90;;;3.13;;
1467;SDS011;727;48.892;9.544;2023-12-28T07:01:50;3.50;;;3.17;;
1467;SDS011;727;48.892;9.544;2023-12-28T07:04:17;3.30;;;2.95;;
1467;SDS011;727;48.892;9.544;2023-12-28T07:06:44;3.40;;;3.10;;
1467;SDS011;727;48.892;9.544;2023-12-28T07:09:11;7.75;;;4.00;;
1467;SDS011;727;48.892;9.544;2023-12-28T07:11:37;4.88;;;2.97;;
1467;SDS011;727;48.892;9.544;2023-12-28T07:14:04;7.82;;;5.28;;
1467;SDS011;727;48.892;9.544;2023-12-28T07:16:32;5.40;;;3.90;;
1467;SDS011;727;48.892;9.544;2023-12-28T07:18:59;6.40;;;5.57;;
1467;SDS011;727;48.892;9.544;2023-12-28T07:21:25;9.48;;;8.57;;
1467;SDS011;727;48.892;9.544;2023-12-28T07:23:52;17.55;;;15.90;;
1467;SDS011;727;48.892;9.544;2023-12-28T07:26:19;19.13;;;15.82;;
1467;SDS011;727;48.892;9.544;2023-12-28T07:28:45;15.23;;;13.85;;
1467;SDS011;727;48.892;9.544;2023-12-28T07:31:21;14.55;;;13.23;;
1467;SDS011;727;48.892;9.544;2023-12-28T07:33:50;25.20;;;22.80;;
1467;SDS011;727;48.892;9.544;2023-12-28T07:36:17;53.83;;;43.83;;
1467;SDS011;727;48.892;9.544;2023-12-28T07:38:43;33.90;;;30.75;;
1467;SDS011;727;48.892;9.544;2023-12-28T07:41:10;37.13;;;33.38;;
1467;SDS011;727;48.892;9.544;2023-12-28T07:43:37;25.48;;;20.63;;
1467;SDS011;727;48.892;9.544;2023-12-28T07:46:04;25.95;;;18.00;;
1467;SDS011;727;48.892;9.544;2023-12-28T07:48:30;8.85;;;7.97;;
1467;SDS011;727;48.892;9.544;2023-12-28T07:50:59;5.30;;;4.80;;
1467;SDS011;727;48.892;9.544;2023-12-28T07:53:30;11.32;;;8.00;;
1467;SDS011;727;48.892;9.544;2023-12-28T07:55:57;11.73;;;10.52;;
1467;SDS011;727;48.892;9.544;2023-12-28T07:58:23;11.65;;;9.15;;
1467;SDS011;727;48.892;9.544;2023-12-28T08:00:50;14.52;;;8.07;;
1467;SDS011;727;48.892;9.544;2023-12-28T08:03:17;11.27;;;9.82;;
1467;SDS011;727;48.892;9.544;2023-12-28T08:05:45;8.73;;;7.25;;
1467;SDS011;727;48.892;9.544;2023-12-28T08:08:13;12.50;;;7.80;;
1467;SDS011;727;48.892;9.544;2023-12-28T08:10:40;9.20;;;7.10;;
1467;SDS011;727;48.892;9.544;2023-12-28T08:13:07;7.00;;;6.30;;
1467;SDS011;727;48.892;9.544;2023-12-28T08:15:33;9.90;;;7.45;;
1467;SDS011;727;48.892;9.544;2023-12-28T08:18:00;8.60;;;6.25;;
1467;SDS011;727;48.892;9.544;2023-12-28T08:20:27;6.32;;;5.57;;
1467;SDS011;727;48.892;9.544;2023-12-28T08:22:53;5.22;;;4.10;;
1467;SDS011;727;48.892;9.544;2023-12-28T08:25:21;5.75;;;4.50;;
1467;SDS011;727;48.892;9.544;2023-12-28T08:27:48;11.02;;;8.10;;
1467;SDS011;727;48.892;9.544;2023-12-28T08:30:15;7.68;;;6.85;;
1467;SDS011;727;48.892;9.544;2023-12-28T08:32:43;8.10;;;6.38;;
1467;SDS011;727;48.892;9.544;2023-12-28T08:35:10;6.75;;;6.13;;
1467;SDS011;727;48.892;9.544;2023-12-28T08:37:36;5.50;;;5.10;;
1467;SDS011;727;48.892;9.544;2023-12-28T08:40:03;6.40;;;5.35;;
1467;SDS011;727;48.892;9.544;2023-12-28T08:42:33;5.43;;;4.22;;
1467;SDS011;727;48.892;9.544;2023-12-28T08:44:59;3.58;;;3.28;;
1467;SDS011;727;48.892;9.544;2023-12-28T08:47:26;3.70;;;3.40;;
1467;SDS011;727;48.892;9.544;2023-12-28T08:49:53;5.90;;;5.25;;
1467;SDS011;727;48.892;9.544;2023-12-28T08:52:20;6.03;;;5.43;;
1467;SDS011;727;48.892;9.544;2023-12-28T08:54:46;10.05;;;7.93;;
1467;SDS011;727;48.892;9.544;2023-12-28T08:57:14;62.08;;;56.00;;
1467;SDS011;727;48.892;9.544;2023-12-28T08:59:45;49.85;;;44.60;;
1467;SDS011;727;48.892;9.544;2023-12-28T09:02:11;51.25;;;46.05;;
1467;SDS011;727;48.892;9.544;2023-12-28T09:04:38;33.97;;;30.55;;
1467;SDS011;727;48.892;9.544;2023-12-28T09:07:05;19.90;;;18.10;;
1467;SDS011;727;48.892;9.544;2023-12-28T09:09:31;12.65;;;11.35;;
1467;SDS011;727;48.892;9.544;2023-12-28T09:11:58;17.17;;;12.25;;
1467;SDS011;727;48.892;9.544;2023-12-28T09:14:25;12.70;;;11.50;;
1467;SDS011;727;48.892;9.544;2023-12-28T09:16:53;11.95;;;10.75;;
1467;SDS011;727;48.892;9.544;2023-12-28T09:19:20;9.88;;;8.68;;
1467;SDS011;727;48.892;9.544;2023-12-28T09:21:47;14.80;;;11.25;;
1467;SDS011;727;48.892;9.544;2023-12-28T09:24:14;12.20;;;11.10;;
1467;SDS011;727;48.892;9.544;2023-12-28T09:26:43;12.88;;;11.77;;
1467;SDS011;727;48.892;9.544;2023-12-28T09:29:10;14.18;;;12.73;;
1467;SDS011;727;48.892;9.544;2023-12-28T09:31:37;179.20;;;81.63;;
1467;SDS011;727;48.892;9.544;2023-12-28T09:34:06;140.13;;;64.20;;
1467;SDS011;727;48.892;9.544;2023-12-28T09:36:33;129.77;;;67.90;;
1467;SDS011;727;48.892;9.544;2023-12-28T09:38:59;108.30;;;58.17;;
1467;SDS011;727;48.892;9.544;2023-12-28T09:41:27;77.57;;;44.33;;
1467;SDS011;727;48.892;9.544;2023-12-28T09:44:00;27.92;;;19.65;;
1467;SDS011;727;48.892;9.544;2023-12-28T09:46:33;21.33;;;13.65;;
1467;SDS011;727;48.892;9.544;2023-12-28T09:49:00;11.50;;;10.30;;
1467;SDS011;727;48.892;9.544;2023-12-28T09:51:29;13.93;;;10.63;;
1467;SDS011;727;48.892;9.544;2023-12-28T09:53:56;19.10;;;12.27;;
1467;SDS011;727;48.892;9.544;2023-12-28T09:56:23;17.33;;;12.13;;
1467;SDS011;727;48.892;9.544;2023-12-28T09:58:53;23.42;;;18.13;;
1467;SDS011;727;48.892;9.544;2023-12-28T10:01:23;31.50;;;24.02;;
1467;SDS011;727;48.892;9.544;2023-12-28T10:03:50;35.53;;;24.52;;
1467;SDS011;727;48.892;9.544;2023-12-28T10:06:19;33.35;;;26.52;;
1467;SDS011;727;48.892;9.544;2023-12-28T10:08:50;33.70;;;21.85;;
1467;SDS011;727;48.892;9.544;2023-12-28T10:11:31;30.25;;;20.92;;
1467;SDS011;727;48.892;9.544;2023-12-28T10:14:06;32.38;;;23.10;;
1467;SDS011;727;48.892;9.544;2023-12-28T10:16:33;34.40;;;24.00;;
1467;SDS011;727;48.892;9.544;2023-12-28T10:19:00;26.83;;;20.38;;
1467;SDS011;727;48.892;9.544;2023-12-28T10:21:27;25.67;;;19.60;;
1467;SDS011;727;48.892;9.544;2023-12-28T10:23:55;16.58;;;12.18;;
1467;SDS011;727;48.892;9.544;2023-12-28T10:26:22;23.35;;;17.38;;
1467;SDS011;727;48.892;9.544;2023-12-28T10:28:50;19.85;;;15.52;;
1467;SDS011;727;48.892;9.544;2023-12-28T10:31:23;20.65;;;13.65;;
1467;SDS011;727;48.892;9.544;2023-12-28T10:33:49;16.30;;;13.10;;
1467;SDS011;727;48.892;9.544;2023-12-28T10:36:17;17.40;;;13.20;;
1467;SDS011;727;48.892;9.544;2023-12-28T10:38:47;16.27;;;12.43;;
1467;SDS011;727;48.892;9.544;2023-12-28T10:41:19;16.08;;;12.55;;
1467;SDS011;727;48.892;9.544;2023-12-28T10:44:02;20.50;;;13.60;;
1467;SDS011;727;48.892;9.544;2023-12-28T10:46:30;15.10;;;13.50;;
1467;SDS011;727;48.892;9.544;2023-12-28T10:48:59;14.90;;;12.70;;
1467;SDS011;727;48.892;9.544;2023-12-28T10:51:34;17.25;;;14.18;;
1467;SDS011;727;48.892;9.544;2023-12-28T10:54:05;13.75;;;10.68;;
1467;SDS011;727;48.892;9.544;2023-12-28T10:56:46;12.73;;;9.77;;
1467;SDS011;727;48.892;9.544;2023-12-28T10:59:20;9.45;;;8.40;;
1467;SDS011;727;48.892;9.544;2023-12-28T11:01:57;10.07;;;9.05;;
1467;SDS011;727;48.892;9.544;2023-12-28T11:04:31;12.45;;;9.95;;
1467;SDS011;727;48.892;9.544;2023-12-28T11:07:03;12.02;;;10.65;;
1467;SDS011;727;48.892;9.544;2023-12-28T11:09:33;14.70;;;11.48;;
1467;SDS011;727;48.892;9.544;2023-12-28T11:12:08;26.02;;;22.20;;
1467;SDS011;727;48.892;9.544;2023-12-28T11:14:40;21.42;;;17.25;;
1467;SDS011;727;48.892;9.544;2023-12-28T11:17:08;26.08;;;16.33;;
1467;SDS011;727;48.892;9.544;2023-12-28T11:19:35;15.82;;;14.10;;
1467;SDS011;727;48.892;9.544;2023-12-28T11:22:03;12.50;;;9.93;;
1467;SDS011;727;48.892;9.544;2023-12-28T11:24:31;11.18;;;9.90;;
1467;SDS011;727;48.892;9.544;2023-12-28T11:27:00;14.00;;;10.13;;
1467;SDS011;727;48.892;9.544;2023-12-28T11:29:29;11.52;;;9.43;;
1467;SDS011;727;48.892;9.544;2023-12-28T11:31:56;12.48;;;9.10;;
1467;SDS011;727;48.892;9.544;2023-12-28T11:34:24;12.95;;;9.80;;
1467;SDS011;727;48.892;9.544;2023-12-28T11:36:52;11.50;;;9.70;;
1467;SDS011;727;48.892;9.544;2023-12-28T11:39:26;14.95;;;8.48;;
1467;SDS011;727;48.892;9.544;2023-12-28T11:41:59;13.57;;;10.15;;
1467;SDS011;727;48.892;9.544;2023-12-28T11:44:29;19.52;;;11.55;;
1467;SDS011;727;48.892;9.544;2023-12-28T11:46:56;18.67;;;13.13;;
1467;SDS011;727;48.892;9.544;2023-12-28T11:49:26;19.90;;;13.30;;
1467;SDS011;727;48.892;9.544;2023-12-28T11:51:54;24.45;;;16.15;;
1467;SDS011;727;48.892;9.544;2023-12-28T11:54:23;22.63;;;16.77;;
1467;SDS011;727;48.892;9.544;2023-12-28T11:56:51;23.05;;;15.27;;
1467;SDS011;727;48.892;9.544;2023-12-28T11:59:20;28.13;;;16.77;;
1467;SDS011;727;48.892;9.544;2023-12-28T12:01:52;28.77;;;17.05;;
1467;SDS011;727;48.892;9.544;2023-12-28T12:04:20;21.33;;;15.85;;
1467;SDS011;727;48.892;9.544;2023-12-28T12:06:47;24.55;;;16.98;;
1467;SDS011;727;48.892;9.544;2023-12-28T12:09:13;26.87;;;17.70;;
1467;SDS011;727;48.892;9.544;2023-12-28T12:11:41;25.98;;;18.30;;
1467;SDS011;727;48.892;9.544;2023-12-28T12:14:08;36.30;;;18.55;;
1467;SDS011;727;48.892;9.544;2023-12-28T12:16:35;19.20;;;14.88;;
1467;SDS011;727;48.892;9.544;2023-12-28T12:19:03;20.58;;;14.27;;
1467;SDS011;727;48.892;9.544;2023-12-28T12:21:32;12.98;;;9.57;;
1467;SDS011;727;48.892;9.544;2023-12-28T12:23:59;17.75;;;12.95;;
1467;SDS011;727;48.892;9.544;2023-12-28T12:26:26;21.20;;;15.98;;
1467;SDS011;727;48.892;9.544;2023-12-28T12:28:52;24.67;;;18.48;;
1467;SDS011;727;48.892;9.544;2023-12-28T12:31:19;32.00;;;21.33;;
1467;SDS011;727;48.892;9.544;2023-12-28T12:33:47;27.20;;;18.13;;
1467;SDS011;727;48.892;9.544;2023-12-28T12:36:16;16.73;;;12.20;;
1467;SDS011;727;48.892;9.544;2023-12-28T12:38:43;13.32;;;9.88;;
1467;SDS011;727;48.892;9.544;2023-12-28T12:41:11;13.18;;;9.32;;
1467;SDS011;727;48.892;9.544;2023-12-28T12:43:39;11.98;;;9.07;;
1467;SDS011;727;48.892;9.544;2023-12-28T12:46:07;11.77;;;9.00;;
1467;SDS011;727;48.892;9.544;2023-12-28T12:48:33;13.30;;;9.80;;
1467;SDS011;727;48.892;9.544;2023-12-28T12:51:01;13.38;;;10.75;;
1467;SDS011;727;48.892;9.544;2023-12-28T12:53:33;16.75;;;12.98;;
1467;SDS011;727;48.892;9.544;2023-12-28T12:56:02;20.60;;;15.82;;
1467;SDS011;727;48.892;9.544;2023-12-28T12:58:30;20.48;;;15.63;;
1467;SDS011;727;48.892;9.544;2023-12-28T13:00:57;17.58;;;13.48;;
1467;SDS011;727;48.892;9.544;2023-12-28T13:03:27;16.55;;;13.52;;
1467;SDS011;727;48.892;9.544;2023-12-28T13:05:55;20.27;;;13.35;;
1467;SDS011;727;48.892;9.544;2023-12-28T13:08:22;13.90;;;12.23;;
1467;SDS011;727;48.892;9.544;2023-12-28T13:10:50;14.38;;;11.85;;
1467;SDS011;727;48.892;9.544;2023-12-28T13:13:17;13.57;;;11.15;;
1467;SDS011;727;48.892;9.544;2023-12-28T13:15:43;19.17;;;12.93;;
1467;SDS011;727;48.892;9.544;2023-12-28T13:18:10;15.55;;;11.75;;
1467;SDS011;727;48.892;9.544;2023-12-28T13:20:37;17.98;;;12.00;;
1467;SDS011;727;48.892;9.544;2023-12-28T13:23:04;15.50;;;11.57;;
1467;SDS011;727;48.892;9.544;2023-12-28T13:25:30;11.75;;;9.48;;
1467;SDS011;727;48.892;9.544;2023-12-28T13:27:59;18.98;;;12.20;;
1467;SDS011;727;48.892;9.544;2023-12-28T13:30:25;19.20;;;14.23;;
1467;SDS011;727;48.892;9.544;2023-12-28T13:32:53;26.00;;;17.45;;
1467;SDS011;727;48.892;9.544;2023-12-28T13:35:21;30.15;;;21.50;;
1467;SDS011;727;48.892;9.544;2023-12-28T13:37:48;22.58;;;17.92;;
1467;SDS011;727;48.892;9.544;2023-12-28T13:40:15;22.55;;;17.23;;
1467;SDS011;727;48.892;9.544;2023-12-28T13:42:41;22.85;;;17.17;;
1467;SDS011;727;48.892;9.544;2023-12-28T13:45:09;24.20;;;16.95;;
1467;SDS011;727;48.892;9.544;2023-12-28T13:47:37;25.05;;;20.33;;
1467;SDS011;727;48.892;9.544;2023-12-28T13:50:04;20.48;;;18.20;;
1467;SDS011;727;48.892;9.544;2023-12-28T13:52:32;18.92;;;16.90;;
1467;SDS011;727;48.892;9.544;2023-12-28T13:54:58;27.85;;;21.55;;
1467;SDS011;727;48.892;9.544;2023-12-28T13:57:25;23.75;;;21.23;;
1467;SDS011;727;48.892;9.544;2023-12-28T13:59:52;22.45;;;20.17;;
1467;SDS011;727;48.892;9.544;2023-12-28T14:02:22;26.17;;;21.52;;
1467;SDS011;727;48.892;9.544;2023-12-28T14:04:49;26.73;;;21.88;;
1467;SDS011;727;48.892;9.544;2023-12-28T14:07:15;32.17;;;26.98;;
1467;SDS011;727;48.892;9.544;2023-12-28T14:09:42;36.10;;;27.30;;
1467;SDS011;727;48.892;9.544;2023-12-28T14:12:09;30.33;;;27.08;;
1467;SDS011;727;48.892;9.544;2023-12-28T14:14:35;26.40;;;23.40;;
1467;SDS011;727;48.892;9.544;2023-12-28T14:17:02;25.48;;;22.88;;
1467;SDS011;727;48.892;9.544;2023-12-28T14:19:31;23.65;;;21.30;;
1467;SDS011;727;48.892;9.544;2023-12-28T14:21:58;20.73;;;18.38;;
1467;SDS011;727;48.892;9.544;2023-12-28T14:24:25;23.25;;;16.70;;
1467;SDS011;727;48.892;9.544;2023-12-28T14:26:53;19.85;;;17.40;;
1467;SDS011;727;48.892;9.544;2023-12-28T14:29:20;16.48;;;14.52;;
1467;SDS011;727;48.892;9.544;2023-12-28T14:31:48;15.35;;;13.68;;
1467;SDS011;727;48.892;9.544;2023-12-28T14:34:15;14.90;;;13.40;;
1467;SDS011;727;48.892;9.544;2023-12-28T14:36:44;21.90;;;14.18;;
1467;SDS011;727;48.892;9.544;2023-12-28T14:39:15;17.23;;;14.75;;
1467;SDS011;727;48.892;9.544;2023-12-28T14:41:43;21.27;;;14.52;;
1467;SDS011;727;48.892;9.544;2023-12-28T14:44:10;17.05;;;14.93;;
1467;SDS011;727;48.892;9.544;2023-12-28T14:46:37;19.50;;;13.30;;
1467;SDS011;727;48.892;9.544;2023-12-28T14:49:04;15.55;;;12.10;;
1467;SDS011;727;48.892;9.544;2023-12-28T14:51:31;15.45;;;13.80;;
1467;SDS011;727;48.892;9.544;2023-12-28T14:53:59;14.73;;;11.85;;
1467;SDS011;727;48.892;9.544;2023-12-28T14:56:26;16.23;;;12.48;;
1467;SDS011;727;48.892;9.544;2023-12-28T14:58:53;16.13;;;11.05;;
1467;SDS011;727;48.892;9.544;2023-12-28T15:01:19;15.48;;;12.30;;
1467;SDS011;727;48.892;9.544;2023-12-28T15:03:47;19.42;;;13.23;;
1467;SDS011;727;48.892;9.544;2023-12-28T15:06:14;16.73;;;14.05;;
1467;SDS011;727;48.892;9.544;2023-12-28T15:08:42;13.85;;;11.82;;
1467;SDS011;727;48.892;9.544;2023-12-28T15:11:10;10.80;;;9.70;;
1467;SDS011;727;48.892;9.544;2023-12-28T15:13:38;13.88;;;10.35;;
1467;SDS011;727;48.892;9.544;2023-12-28T15:16:05;16.23;;;10.43;;
1467;SDS011;727;48.892;9.544;2023-12-28T15:18:33;12.80;;;10.77;;
1467;SDS011;727;48.892;9.544;2023-12-28T15:21:00;13.85;;;12.07;;